Terminal Aerodrome Forecast
Issued by NWS Grand Rapids, MI

Home | Current Version | Previous Version | Text Only | Print | Product List | Glossary On
Versions: 1 2 3 4 5 6 7 8 9 10 11 12 13 14 15 16 17 18 19
000
FTUS43 KGRR 312300 RRA
TAFGRR
TAF
KGRR 312341Z 0100/0124 36014G19KT P6SM VCSH BKN035
     FM010500 01009G16KT P6SM SCT035
     FM011400 02010KT P6SM SCT040=

USA.gov is the U.S. government's official web portal to all federal, state and local government web resources and services.